Baltimore, Maryland
Traffic Map
Current Weather Conditions
Baltimore, Maryland
Scattered Clouds
Scattered Clouds
24°
Feels Like: 24°
Wind Chill: 24° Ceiling: Unl
Heat Index: 24° Visibility: 10mi
Dew Point: 21° Wind: 6mph
Humidity: 79% Direction: 320° (NW)
Pressure: 29.87in Gusts: 0mph
Raw Report DataKBWI 280654Z 32005KT 10SM FEW055 SCT250 24/21 A2987 RMK AO2 SLP114 T02440206
Traffic Incident Summary
Active as of:
Severity:
Category:
InformationThere was an issue retrieving the traffic information for this location. Please try a different location or try again shortly.
Advertisements
Track Severe Weather on mobile